createdAt,value
2018-08-17T00:00:54.010Z,16.28
2018-08-17T00:03:23.542Z,16.28
2018-08-17T00:05:52.510Z,16.34
2018-08-17T00:08:21.302Z,16.31
2018-08-17T00:10:51.787Z,16.25
2018-08-17T00:13:21.448Z,16.24
2018-08-17T00:15:50.363Z,16.26
2018-08-17T00:18:19.182Z,16.18
2018-08-17T00:20:48.833Z,16.14
2018-08-17T00:23:18.493Z,16.13
2018-08-17T00:25:47.355Z,16.11
2018-08-17T00:28:16.004Z,16.10
2018-08-17T00:30:44.675Z,15.98
2018-08-17T00:33:14.179Z,15.98
2018-08-17T00:35:42.760Z,15.95
2018-08-17T00:38:12.393Z,15.91
2018-08-17T00:40:41.723Z,15.93
2018-08-17T00:43:10.434Z,15.80
2018-08-17T00:45:39.996Z,15.82
2018-08-17T00:48:09.404Z,15.84
2018-08-17T00:50:37.926Z,15.77
2018-08-17T00:53:06.744Z,15.70
2018-08-17T00:55:35.773Z,15.69
2018-08-17T00:58:05.169Z,15.54
2018-08-17T01:00:34.047Z,15.58
2018-08-17T01:03:02.953Z,15.57
2018-08-17T01:05:31.784Z,15.57
2018-08-17T01:08:01.040Z,15.52
2018-08-17T01:10:29.858Z,15.49
2018-08-17T01:12:58.745Z,15.45
2018-08-17T01:15:27.384Z,15.46
2018-08-17T01:17:56.053Z,15.42
2018-08-17T01:20:25.474Z,15.39
2018-08-17T01:22:55.083Z,15.41
2018-08-17T01:25:25.205Z,15.35
2018-08-17T01:27:53.886Z,15.28
2018-08-17T01:30:22.704Z,15.29
2018-08-17T01:32:51.405Z,15.21
2018-08-17T01:35:20.040Z,15.16
2018-08-17T01:37:48.862Z,15.23
2018-08-17T01:40:18.177Z,15.22
2018-08-17T01:42:48.358Z,15.18
2018-08-17T01:45:19.350Z,15.15
2018-08-17T01:47:48.695Z,15.13
2018-08-17T01:50:17.751Z,15.13
2018-08-17T01:52:46.583Z,15.12
2018-08-17T01:55:15.269Z,15.05
2018-08-17T01:57:44.643Z,15.03
2018-08-17T02:00:13.363Z,14.93
2018-08-17T02:02:42.952Z,14.88
2018-08-17T02:05:12.329Z,14.87
2018-08-17T02:07:41.612Z,14.86
2018-08-17T02:10:11.569Z,14.85
2018-08-17T02:12:40.739Z,14.78
2018-08-17T02:15:10.389Z,14.71
2018-08-17T02:17:39.215Z,14.77
2018-08-17T02:20:08.130Z,14.76
2018-08-17T02:22:36.805Z,14.71
2018-08-17T02:25:06.387Z,14.70
2018-08-17T02:27:35.247Z,14.66
2018-08-17T02:30:04.176Z,14.64
2018-08-17T02:32:32.717Z,14.56
2018-08-17T02:35:01.933Z,14.54
2018-08-17T02:37:30.713Z,14.53
2018-08-17T02:39:59.498Z,14.55
2018-08-17T02:42:28.250Z,14.50
2018-08-17T02:44:56.899Z,14.50
2018-08-17T02:47:25.901Z,14.47
2018-08-17T02:49:54.668Z,14.43
2018-08-17T02:52:23.452Z,14.37
2018-08-17T02:54:52.389Z,14.29
2018-08-17T02:57:21.941Z,14.27
2018-08-17T02:59:50.774Z,14.11
2018-08-17T03:02:19.445Z,14.20
2018-08-17T03:04:48.713Z,14.20
2018-08-17T03:07:17.570Z,14.15
2018-08-17T03:09:46.471Z,14.16
2018-08-17T03:12:15.463Z,14.20
2018-08-17T03:14:44.584Z,14.17
2018-08-17T03:17:13.716Z,14.15
2018-08-17T03:19:42.560Z,14.16
2018-08-17T03:22:12.395Z,14.17
2018-08-17T03:24:41.150Z,14.11
2018-08-17T03:27:09.978Z,14.11
2018-08-17T03:29:38.840Z,14.08
2018-08-17T03:32:08.157Z,14.07
2018-08-17T03:34:37.654Z,14.04
2018-08-17T03:37:06.725Z,13.97
2018-08-17T03:39:36.949Z,13.97
2018-08-17T03:42:06.670Z,13.95
2018-08-17T03:44:35.308Z,13.99
2018-08-17T03:47:04.354Z,14.00
2018-08-17T03:49:34.070Z,13.98
2018-08-17T03:52:02.764Z,13.95
2018-08-17T03:54:32.135Z,13.94
2018-08-17T03:57:01.528Z,13.94
2018-08-17T03:59:30.500Z,13.91
2018-08-17T04:01:59.349Z,13.90
2018-08-17T04:04:28.079Z,13.86
2018-08-17T04:06:56.965Z,13.87
2018-08-17T04:09:26.440Z,13.85
2018-08-17T04:11:55.344Z,13.75
2018-08-17T04:14:24.876Z,13.77
2018-08-17T04:16:53.479Z,13.74
2018-08-17T04:19:22.584Z,13.78
2018-08-17T04:21:51.217Z,13.76
2018-08-17T04:24:19.964Z,13.81
2018-08-17T04:26:49.253Z,13.90
2018-08-17T04:29:17.905Z,14.03
2018-08-17T04:31:47.456Z,14.12
2018-08-17T04:34:17.797Z,14.21
2018-08-17T04:36:46.660Z,14.29
2018-08-17T04:39:15.291Z,14.33
2018-08-17T04:41:44.633Z,14.37
2018-08-17T04:44:13.695Z,14.45
2018-08-17T04:46:42.855Z,14.46
2018-08-17T04:49:11.542Z,14.50
2018-08-17T04:51:40.313Z,14.52
2018-08-17T04:54:09.519Z,14.73
2018-08-17T04:56:38.334Z,14.95
2018-08-17T04:59:07.711Z,15.22
2018-08-17T05:01:37.524Z,15.44
2018-08-17T05:04:06.401Z,15.54
2018-08-17T05:06:34.976Z,15.51
2018-08-17T05:09:04.177Z,15.52
2018-08-17T05:11:33.006Z,15.64
2018-08-17T05:14:01.759Z,15.75
2018-08-17T05:16:30.659Z,15.84
2018-08-17T05:18:59.413Z,15.99
2018-08-17T05:21:28.289Z,16.31
2018-08-17T05:23:57.127Z,16.67
2018-08-17T05:26:25.645Z,16.84
2018-08-17T05:28:54.971Z,16.94
2018-08-17T05:31:23.960Z,17.02
2018-08-17T05:33:53.192Z,17.01
2018-08-17T05:36:21.929Z,17.07
2018-08-17T05:38:50.653Z,17.28
2018-08-17T05:41:19.494Z,17.45
2018-08-17T05:43:48.335Z,17.65
2018-08-17T05:46:17.179Z,18.01
2018-08-17T05:48:45.781Z,18.71
2018-08-17T05:51:14.639Z,19.56
2018-08-17T05:53:43.350Z,20.20
2018-08-17T05:56:12.247Z,19.96
2018-08-17T05:58:41.025Z,20.05
2018-08-17T06:01:09.838Z,20.35
2018-08-17T06:03:38.585Z,20.84
2018-08-17T06:06:08.247Z,21.12
2018-08-17T06:08:37.147Z,20.86
2018-08-17T06:11:05.822Z,20.33
2018-08-17T06:13:34.760Z,19.88
2018-08-17T06:16:04.970Z,19.50
2018-08-17T06:18:33.888Z,19.06
2018-08-17T06:21:03.026Z,18.84
2018-08-17T06:23:31.738Z,18.71
2018-08-17T06:26:00.681Z,18.86
2018-08-17T06:28:32.368Z,19.03
2018-08-17T06:31:01.307Z,19.77
2018-08-17T06:33:30.599Z,20.79
2018-08-17T06:35:59.247Z,21.98
2018-08-17T06:38:28.100Z,23.27
2018-08-17T06:40:56.984Z,23.94
2018-08-17T06:43:25.681Z,25.04
2018-08-17T06:45:55.548Z,25.50
2018-08-17T06:48:24.377Z,26.33
2018-08-17T06:50:53.297Z,26.98
2018-08-17T06:53:22.561Z,27.37
2018-08-17T06:55:51.801Z,26.78
2018-08-17T06:58:22.529Z,27.59
2018-08-17T07:00:52.462Z,27.66
2018-08-17T07:03:21.254Z,28.11
2018-08-17T07:05:50.599Z,28.74
2018-08-17T07:08:19.792Z,29.08
2018-08-17T07:10:49.250Z,29.88
2018-08-17T07:13:18.161Z,30.56
2018-08-17T07:15:47.472Z,31.56
2018-08-17T07:18:16.817Z,31.86
2018-08-17T07:20:45.560Z,32.33
2018-08-17T07:23:15.113Z,31.56
2018-08-17T07:25:44.305Z,32.27
2018-08-17T07:28:13.657Z,32.63
2018-08-17T07:30:42.222Z,32.76
2018-08-17T07:33:10.965Z,33.34
2018-08-17T07:35:40.253Z,33.20
2018-08-17T07:38:09.579Z,33.29
2018-08-17T07:40:38.705Z,34.05
2018-08-17T07:43:08.049Z,34.40
2018-08-17T07:45:37.172Z,35.14
2018-08-17T07:48:06.553Z,35.58
2018-08-17T07:50:35.460Z,36.58
2018-08-17T07:53:04.368Z,36.77
2018-08-17T07:55:33.102Z,37.39
2018-08-17T07:58:02.311Z,37.35
2018-08-17T08:00:31.486Z,37.68
2018-08-17T08:03:00.373Z,37.54
2018-08-17T08:05:29.180Z,37.24
2018-08-17T08:07:58.747Z,37.79
2018-08-17T08:10:29.542Z,37.79
2018-08-17T08:12:58.480Z,37.38
2018-08-17T08:15:28.331Z,37.34
2018-08-17T08:17:57.138Z,37.49
2018-08-17T08:20:34.907Z,38.55
2018-08-17T08:23:15.093Z,38.37
2018-08-17T08:25:44.800Z,38.29
2018-08-17T08:28:14.706Z,38.07
2018-08-17T08:30:44.671Z,38.10
2018-08-17T08:33:13.674Z,37.97
2018-08-17T08:35:42.639Z,38.20
2018-08-17T08:38:11.393Z,38.59
2018-08-17T08:40:40.689Z,38.77
2018-08-17T08:43:09.761Z,38.99
2018-08-17T08:45:40.273Z,39.51
2018-08-17T08:48:09.710Z,39.37
2018-08-17T08:50:39.394Z,39.48
2018-08-17T08:53:09.246Z,39.65
2018-08-17T08:55:38.927Z,41.05
2018-08-17T08:58:07.913Z,40.72
2018-08-17T09:00:36.908Z,41.72
2018-08-17T09:03:06.362Z,41.70
2018-08-17T09:05:35.976Z,41.63
2018-08-17T09:08:05.146Z,41.93
2018-08-17T09:10:34.087Z,42.90
2018-08-17T09:13:03.398Z,43.30
2018-08-17T09:15:32.332Z,43.54
2018-08-17T09:18:02.024Z,44.44
2018-08-17T09:20:30.991Z,43.73
2018-08-17T09:23:00.142Z,42.90
2018-08-17T09:25:29.388Z,42.62
2018-08-17T09:27:58.666Z,42.74
2018-08-17T09:30:27.748Z,44.72
2018-08-17T09:32:56.727Z,44.69
2018-08-17T09:35:25.623Z,45.30
2018-08-17T09:37:54.602Z,46.20
2018-08-17T09:40:23.925Z,47.05
2018-08-17T09:42:52.601Z,47.41
2018-08-17T09:45:23.046Z,47.78
2018-08-17T09:47:52.415Z,48.22
2018-08-17T09:50:21.262Z,47.02
2018-08-17T09:52:50.883Z,46.88
2018-08-17T09:55:21.014Z,47.91
2018-08-17T09:57:50.405Z,47.26
2018-08-17T10:00:19.748Z,47.06
2018-08-17T10:02:53.788Z,46.89
2018-08-17T10:05:27.631Z,46.16
2018-08-17T10:08:01.658Z,46.90
2018-08-17T10:10:31.037Z,46.66
2018-08-17T10:13:00.874Z,46.37
2018-08-17T10:15:30.241Z,46.24
2018-08-17T10:17:58.875Z,46.06
2018-08-17T10:20:28.932Z,46.53
2018-08-17T10:22:58.009Z,47.70
2018-08-17T10:25:27.157Z,47.76
2018-08-17T10:27:58.388Z,48.80
2018-08-17T10:30:28.897Z,47.18
2018-08-17T10:32:58.991Z,47.23
2018-08-17T10:35:36.797Z,47.62
2018-08-17T10:38:06.706Z,46.24
2018-08-17T10:40:36.249Z,44.91
2018-08-17T10:43:06.618Z,42.99
2018-08-17T10:45:35.373Z,42.31
2018-08-17T10:48:05.864Z,41.68
2018-08-17T10:50:35.478Z,40.49
2018-08-17T10:53:05.342Z,39.75
2018-08-17T10:55:42.773Z,39.06
2018-08-17T10:58:15.338Z,38.66
2018-08-17T11:00:44.287Z,38.41
2018-08-17T11:03:12.951Z,38.19
2018-08-17T11:05:42.173Z,37.58
2018-08-17T11:08:11.542Z,36.71
2018-08-17T11:10:40.298Z,36.24
2018-08-17T11:13:09.754Z,36.06
2018-08-17T11:15:39.052Z,36.01
2018-08-17T11:18:08.644Z,35.66
2018-08-17T11:20:37.447Z,35.75
2018-08-17T11:23:06.954Z,35.60
2018-08-17T11:25:35.727Z,35.52
2018-08-17T11:28:05.177Z,35.70
2018-08-17T11:30:34.948Z,36.10
2018-08-17T11:33:03.747Z,36.01
2018-08-17T11:35:32.774Z,35.57
2018-08-17T11:38:02.287Z,35.66
2018-08-17T11:40:31.228Z,35.32
2018-08-17T11:43:00.067Z,35.29
2018-08-17T11:45:28.952Z,34.89
2018-08-17T11:47:59.398Z,34.57
2018-08-17T11:50:28.204Z,34.35
2018-08-17T11:52:59.390Z,34.21
2018-08-17T11:55:31.989Z,34.04
2018-08-17T11:58:00.725Z,33.92
2018-08-17T12:00:35.919Z,33.17
2018-08-17T12:03:05.132Z,33.03
2018-08-17T12:05:34.118Z,32.28
2018-08-17T12:08:03.067Z,31.78
2018-08-17T12:10:32.942Z,31.88
2018-08-17T12:13:06.950Z,31.54
2018-08-17T12:15:44.969Z,31.30
2018-08-17T12:18:14.072Z,31.14
2018-08-17T12:20:42.867Z,31.14
2018-08-17T12:23:12.332Z,30.95
2018-08-17T12:25:47.045Z,31.01
2018-08-17T12:28:15.752Z,31.42
2018-08-17T12:30:44.973Z,31.51
2018-08-17T12:33:14.208Z,31.37
2018-08-17T12:35:43.408Z,31.23
2018-08-17T12:38:17.497Z,31.60
2018-08-17T12:40:48.374Z,31.98
2018-08-17T12:43:19.191Z,32.51
2018-08-17T12:45:48.184Z,32.77
2018-08-17T12:48:17.593Z,33.14
2018-08-17T12:50:46.717Z,33.70
2018-08-17T12:53:15.917Z,34.08
2018-08-17T12:55:44.787Z,34.28
2018-08-17T12:58:14.229Z,34.29
2018-08-17T13:00:43.305Z,34.05
2018-08-17T13:03:12.487Z,33.75
2018-08-17T13:05:41.477Z,33.44
2018-08-17T13:08:11.060Z,32.81
2018-08-17T13:10:39.936Z,32.24
2018-08-17T13:13:10.828Z,31.86
2018-08-17T13:15:43.962Z,31.42
2018-08-17T13:18:28.432Z,31.30
2018-08-17T13:20:58.182Z,31.39
2018-08-17T13:23:26.908Z,31.48
2018-08-17T13:25:56.480Z,31.42
2018-08-17T13:28:26.974Z,30.95
2018-08-17T13:30:55.657Z,30.95
2018-08-17T13:33:24.652Z,30.99
2018-08-17T13:35:54.129Z,30.90
2018-08-17T13:38:23.474Z,30.74
2018-08-17T13:40:52.826Z,30.67
2018-08-17T13:43:21.625Z,30.55
2018-08-17T13:45:51.684Z,30.27
2018-08-17T13:48:21.143Z,29.96
2018-08-17T13:50:52.366Z,29.97
2018-08-17T13:53:21.829Z,29.82
2018-08-17T13:55:50.698Z,29.73
2018-08-17T13:58:19.980Z,29.44
2018-08-17T14:00:49.105Z,29.26
2018-08-17T14:03:18.765Z,29.23
2018-08-17T14:05:49.152Z,29.02
2018-08-17T14:08:18.724Z,28.48
2018-08-17T14:10:47.387Z,28.48
2018-08-17T14:13:16.213Z,28.51
2018-08-17T14:15:45.468Z,28.71
2018-08-17T14:18:14.733Z,28.70
2018-08-17T14:20:43.870Z,28.63
2018-08-17T14:23:13.109Z,28.78
2018-08-17T14:25:41.909Z,28.80
2018-08-17T14:28:10.520Z,28.55
2018-08-17T14:30:39.525Z,28.82
2018-08-17T14:33:09.068Z,28.95
2018-08-17T14:35:39.275Z,29.20
2018-08-17T14:38:09.133Z,29.18
2018-08-17T14:40:37.984Z,29.13
2018-08-17T14:43:07.290Z,29.11
2018-08-17T14:45:36.217Z,29.18
2018-08-17T14:48:06.675Z,29.15
2018-08-17T14:50:35.780Z,29.21
2018-08-17T14:53:04.709Z,29.23
2018-08-17T14:55:34.859Z,29.20
2018-08-17T14:58:04.129Z,29.25
2018-08-17T15:00:33.684Z,29.12
2018-08-17T15:03:03.618Z,29.17
2018-08-17T15:05:33.414Z,29.01
2018-08-17T15:08:03.124Z,28.88
2018-08-17T15:10:32.649Z,28.87
2018-08-17T15:13:01.538Z,28.88
2018-08-17T15:15:31.349Z,28.82
2018-08-17T15:18:01.069Z,28.77
2018-08-17T15:20:30.018Z,28.77
2018-08-17T15:22:59.317Z,28.71
2018-08-17T15:25:28.196Z,28.70
2018-08-17T15:27:57.027Z,28.61
2018-08-17T15:30:26.009Z,28.56
2018-08-17T15:32:55.232Z,28.52
2018-08-17T15:35:24.404Z,28.43
2018-08-17T15:37:53.793Z,28.33
2018-08-17T15:40:24.000Z,28.30
2018-08-17T15:42:55.124Z,28.31
2018-08-17T15:45:25.378Z,28.25
2018-08-17T15:47:54.149Z,28.17
2018-08-17T15:50:24.239Z,28.04
2018-08-17T15:52:52.992Z,27.92
2018-08-17T15:55:21.823Z,27.90
2018-08-17T15:57:51.555Z,27.90
2018-08-17T16:00:21.736Z,27.89
2018-08-17T16:02:50.399Z,28.08
2018-08-17T16:05:20.673Z,28.32
2018-08-17T16:07:49.361Z,28.59
2018-08-17T16:10:19.555Z,28.63
2018-08-17T16:12:48.257Z,28.58
2018-08-17T16:15:18.495Z,28.46
2018-08-17T16:17:47.218Z,28.47
2018-08-17T16:20:16.329Z,28.40
2018-08-17T16:22:45.540Z,28.11
2018-08-17T16:25:14.156Z,28.15
2018-08-17T16:27:44.733Z,27.99
2018-08-17T16:30:15.156Z,27.84
2018-08-17T16:32:44.373Z,27.68
2018-08-17T16:35:14.015Z,27.76
2018-08-17T16:37:47.046Z,27.72
2018-08-17T16:40:16.258Z,27.61
2018-08-17T16:42:45.312Z,27.60
2018-08-17T16:45:14.410Z,27.45
2018-08-17T16:47:43.318Z,27.25
2018-08-17T16:50:12.038Z,26.87
2018-08-17T16:52:41.049Z,26.75
2018-08-17T16:55:10.334Z,26.59
2018-08-17T16:57:39.461Z,26.46
2018-08-17T17:00:10.861Z,26.34
2018-08-17T17:02:40.253Z,26.25
2018-08-17T17:05:09.525Z,26.23
2018-08-17T17:07:38.380Z,26.19
2018-08-17T17:10:09.680Z,26.18
2018-08-17T17:12:38.661Z,26.10
2018-08-17T17:15:14.444Z,25.98
2018-08-17T17:17:44.963Z,25.90
2018-08-17T17:20:14.840Z,25.82
2018-08-17T17:22:45.362Z,25.70
2018-08-17T17:25:18.806Z,25.52
2018-08-17T17:27:48.454Z,25.33
2018-08-17T17:30:18.137Z,25.23
2018-08-17T17:32:46.736Z,25.08
2018-08-17T17:35:15.881Z,24.99
2018-08-17T17:37:44.635Z,24.91
2018-08-17T17:40:15.061Z,24.84
2018-08-17T17:42:45.029Z,24.51
2018-08-17T17:45:14.206Z,24.41
2018-08-17T17:47:43.065Z,24.35
2018-08-17T17:50:11.934Z,24.32
2018-08-17T17:52:40.586Z,24.27
2018-08-17T17:55:09.354Z,24.22
2018-08-17T17:57:38.490Z,24.00
2018-08-17T18:00:07.696Z,23.95
2018-08-17T18:02:36.695Z,23.67
2018-08-17T18:05:05.906Z,23.73
2018-08-17T18:07:39.635Z,23.71
2018-08-17T18:10:08.666Z,23.56
2018-08-17T18:12:38.213Z,23.58
2018-08-17T18:15:07.278Z,23.48
2018-08-17T18:17:36.043Z,23.51
2018-08-17T18:20:05.266Z,23.56
2018-08-17T18:22:34.508Z,23.40
2018-08-17T18:25:08.527Z,23.30
2018-08-17T18:27:37.518Z,23.15
2018-08-17T18:30:06.610Z,23.16
2018-08-17T18:32:35.636Z,23.10
2018-08-17T18:35:04.690Z,23.12
2018-08-17T18:37:34.117Z,23.14
2018-08-17T18:40:02.955Z,23.06
2018-08-17T18:42:31.859Z,22.99
2018-08-17T18:45:00.492Z,22.91
2018-08-17T18:47:29.672Z,22.79
2018-08-17T18:49:58.471Z,22.74
2018-08-17T18:52:27.904Z,22.71
2018-08-17T18:54:58.680Z,22.67
2018-08-17T18:57:27.599Z,22.60
2018-08-17T18:59:56.533Z,22.55
2018-08-17T19:02:25.916Z,22.57
2018-08-17T19:04:55.295Z,22.61
2018-08-17T19:07:24.595Z,22.62
2018-08-17T19:09:53.781Z,22.61
2018-08-17T19:12:22.854Z,22.63
2018-08-17T19:14:52.274Z,22.60
2018-08-17T19:17:26.687Z,22.52
2018-08-17T19:19:55.427Z,22.51
2018-08-17T19:22:24.201Z,22.49
2018-08-17T19:24:53.637Z,22.48
2018-08-17T19:27:31.569Z,22.34
2018-08-17T19:30:00.956Z,22.25
2018-08-17T19:32:30.583Z,22.29
2018-08-17T19:34:59.514Z,22.28
2018-08-17T19:37:28.552Z,22.15
2018-08-17T19:39:57.521Z,22.06
2018-08-17T19:42:27.131Z,21.96
2018-08-17T19:44:56.367Z,21.93
2018-08-17T19:47:25.602Z,22.04
2018-08-17T19:49:54.420Z,22.03
2018-08-17T19:52:23.261Z,22.03
2018-08-17T19:54:52.334Z,21.98
2018-08-17T19:57:21.568Z,21.97
2018-08-17T19:59:50.716Z,22.06
2018-08-17T20:02:19.620Z,22.13
2018-08-17T20:04:48.460Z,22.19
2018-08-17T20:07:17.481Z,22.22
2018-08-17T20:09:46.662Z,22.26
2018-08-17T20:12:15.732Z,22.30
2018-08-17T20:14:44.475Z,22.25
2018-08-17T20:17:13.621Z,22.16
2018-08-17T20:19:47.475Z,22.14
2018-08-17T20:22:19.102Z,22.02
2018-08-17T20:24:48.521Z,22.00
2018-08-17T20:27:20.224Z,21.91
2018-08-17T20:29:49.364Z,21.75
2018-08-17T20:32:20.367Z,21.67
2018-08-17T20:34:50.575Z,21.54
2018-08-17T20:37:21.914Z,21.45
2018-08-17T20:39:50.951Z,21.38
2018-08-17T20:42:19.599Z,21.28
2018-08-17T20:44:49.303Z,21.13
2018-08-17T20:47:17.988Z,21.00
2018-08-17T20:49:46.932Z,20.88
2018-08-17T20:52:15.740Z,20.67
2018-08-17T20:54:45.386Z,20.62
2018-08-17T20:57:14.447Z,20.36
2018-08-17T20:59:43.456Z,20.35
2018-08-17T21:02:13.096Z,20.35
2018-08-17T21:04:42.180Z,20.23
2018-08-17T21:07:11.060Z,20.24
2018-08-17T21:09:40.781Z,20.14
2018-08-17T21:12:09.977Z,20.04
2018-08-17T21:14:39.151Z,19.95
2018-08-17T21:17:07.867Z,19.89
2018-08-17T21:19:40.899Z,19.86
2018-08-17T21:22:10.975Z,19.90
2018-08-17T21:24:40.107Z,19.89
2018-08-17T21:27:09.729Z,19.74
2018-08-17T21:29:38.708Z,19.72
2018-08-17T21:32:07.536Z,19.66
2018-08-17T21:34:36.481Z,19.58
2018-08-17T21:37:05.221Z,19.51
2018-08-17T21:39:33.938Z,19.47
2018-08-17T21:42:02.754Z,19.37
2018-08-17T21:44:31.639Z,19.39
2018-08-17T21:47:05.393Z,19.38
2018-08-17T21:49:35.229Z,19.33
2018-08-17T21:52:07.107Z,19.33
2018-08-17T21:54:36.031Z,19.30
2018-08-17T21:57:05.250Z,19.29
2018-08-17T21:59:39.903Z,19.29
2018-08-17T22:02:11.018Z,19.24
2018-08-17T22:04:40.116Z,19.29
2018-08-17T22:07:13.505Z,19.27
2018-08-17T22:09:43.372Z,19.26
2018-08-17T22:12:17.784Z,19.22
2018-08-17T22:14:48.206Z,19.20
2018-08-17T22:17:30.990Z,19.22
2018-08-17T22:20:00.020Z,19.18
2018-08-17T22:22:30.319Z,19.11
2018-08-17T22:24:59.709Z,19.03
2018-08-17T22:27:29.455Z,18.99
2018-08-17T22:29:59.068Z,18.97
2018-08-17T22:32:27.860Z,18.93
2018-08-17T22:34:57.041Z,18.93
2018-08-17T22:37:25.961Z,18.95
2018-08-17T22:39:55.433Z,18.98
2018-08-17T22:42:24.341Z,18.91
2018-08-17T22:44:53.094Z,18.87
2018-08-17T22:47:24.413Z,18.84
2018-08-17T22:49:56.255Z,18.81
2018-08-17T22:52:25.087Z,18.80
2018-08-17T22:54:57.575Z,18.77
2018-08-17T22:57:27.295Z,18.74
2018-08-17T23:00:18.193Z,18.66
2018-08-17T23:02:47.901Z,18.58
2018-08-17T23:05:21.883Z,18.57
2018-08-17T23:07:50.850Z,18.60
2018-08-17T23:10:22.517Z,18.56
2018-08-17T23:12:52.484Z,18.59
2018-08-17T23:15:21.692Z,18.53
2018-08-17T23:17:54.974Z,18.48
2018-08-17T23:20:28.837Z,18.48
2018-08-17T23:22:59.278Z,18.46
2018-08-17T23:25:27.918Z,18.46
2018-08-17T23:27:56.660Z,18.43
2018-08-17T23:30:25.538Z,18.39
2018-08-17T23:32:54.236Z,18.41
2018-08-17T23:35:23.861Z,18.36
2018-08-17T23:37:53.436Z,18.37
2018-08-17T23:40:22.927Z,18.36
2018-08-17T23:42:52.584Z,18.33
2018-08-17T23:45:21.305Z,18.33
2018-08-17T23:47:51.228Z,18.34
2018-08-17T23:50:20.643Z,18.36
2018-08-17T23:52:49.989Z,18.36
2018-08-17T23:55:19.324Z,18.30
2018-08-17T23:57:48.082Z,18.29
